sensor_id;sensor_type;location;lat;lon;timestamp;pressure;altitude;pressure_sealevel;temperature;humidity
56392;BME280;42289;53.582;9.714;2022-07-29T00:01:15;101790.03;;;11.38;100.00
56392;BME280;42289;53.582;9.714;2022-07-29T00:03:42;101810.00;;;11.37;100.00
56392;BME280;42289;53.582;9.714;2022-07-29T00:06:09;101806.34;;;11.44;100.00
56392;BME280;42289;53.582;9.714;2022-07-29T00:08:35;101795.34;;;11.33;100.00
56392;BME280;42289;53.582;9.714;2022-07-29T00:11:02;101811.31;;;11.19;100.00
56392;BME280;42289;53.582;9.714;2022-07-29T00:13:29;101823.97;;;11.33;100.00
56392;BME280;42289;53.582;9.714;2022-07-29T00:15:55;101815.06;;;11.43;100.00
56392;BME280;42289;53.582;9.714;2022-07-29T00:18:23;101803.94;;;11.37;100.00
56392;BME280;42289;53.582;9.714;2022-07-29T00:20:50;101809.44;;;11.26;100.00
56392;BME280;42289;53.582;9.714;2022-07-29T00:23:17;101814.47;;;11.32;100.00
56392;BME280;42289;53.582;9.714;2022-07-29T00:25:43;101825.97;;;11.23;100.00
56392;BME280;42289;53.582;9.714;2022-07-29T00:28:10;101840.00;;;11.18;100.00
56392;BME280;42289;53.582;9.714;2022-07-29T00:30:37;101858.97;;;11.23;100.00
56392;BME280;42289;53.582;9.714;2022-07-29T00:33:03;101866.78;;;11.21;100.00
56392;BME280;42289;53.582;9.714;2022-07-29T00:35:31;101888.81;;;11.06;100.00
56392;BME280;42289;53.582;9.714;2022-07-29T00:38:09;101895.66;;;11.10;100.00
56392;BME280;42289;53.582;9.714;2022-07-29T00:40:35;101910.31;;;11.16;100.00
56392;BME280;42289;53.582;9.714;2022-07-29T00:43:02;101900.88;;;11.12;100.00
56392;BME280;42289;53.582;9.714;2022-07-29T00:45:28;101897.16;;;11.21;100.00
56392;BME280;42289;53.582;9.714;2022-07-29T00:47:55;101901.28;;;11.30;100.00
56392;BME280;42289;53.582;9.714;2022-07-29T00:50:21;101894.69;;;11.15;100.00
56392;BME280;42289;53.582;9.714;2022-07-29T00:52:50;101882.03;;;11.37;100.00
56392;BME280;42289;53.582;9.714;2022-07-29T00:55:17;101847.78;;;11.52;100.00
56392;BME280;42289;53.582;9.714;2022-07-29T00:57:44;101832.38;;;11.44;100.00
56392;BME280;42289;53.582;9.714;2022-07-29T01:00:13;101853.84;;;11.18;100.00
56392;BME280;42289;53.582;9.714;2022-07-29T01:02:40;101880.53;;;11.26;100.00
56392;BME280;42289;53.582;9.714;2022-07-29T01:05:07;101882.25;;;11.27;100.00
56392;BME280;42289;53.582;9.714;2022-07-29T01:07:34;101885.03;;;11.20;100.00
56392;BME280;42289;53.582;9.714;2022-07-29T01:10:04;101891.94;;;11.22;100.00
56392;BME280;42289;53.582;9.714;2022-07-29T01:12:34;101886.72;;;11.22;100.00
56392;BME280;42289;53.582;9.714;2022-07-29T01:15:03;101890.25;;;11.20;100.00
56392;BME280;42289;53.582;9.714;2022-07-29T01:17:34;101915.53;;;11.15;100.00
56392;BME280;42289;53.582;9.714;2022-07-29T01:20:07;101911.03;;;11.23;100.00
56392;BME280;42289;53.582;9.714;2022-07-29T01:22:46;101875.22;;;11.33;100.00
56392;BME280;42289;53.582;9.714;2022-07-29T01:25:32;101832.38;;;11.44;100.00
56392;BME280;42289;53.582;9.714;2022-07-29T01:30:54;101769.56;;;11.57;100.00
56392;BME280;42289;53.582;9.714;2022-07-29T01:33:23;101771.13;;;11.63;100.00
56392;BME280;42289;53.582;9.714;2022-07-29T01:36:14;101745.88;;;11.66;100.00
56392;BME280;42289;53.582;9.714;2022-07-29T01:38:44;101743.28;;;11.66;100.00
56392;BME280;42289;53.582;9.714;2022-07-29T01:41:15;101724.06;;;11.70;100.00
56392;BME280;42289;53.582;9.714;2022-07-29T01:43:56;101696.28;;;11.69;100.00
56392;BME280;42289;53.582;9.714;2022-07-29T01:46:27;101678.78;;;11.74;100.00
56392;BME280;42289;53.582;9.714;2022-07-29T01:49:01;101701.34;;;11.74;100.00
56392;BME280;42289;53.582;9.714;2022-07-29T01:51:31;101673.66;;;11.71;100.00
56392;BME280;42289;53.582;9.714;2022-07-29T01:54:02;101660.63;;;11.71;100.00
56392;BME280;42289;53.582;9.714;2022-07-29T01:56:31;101642.31;;;11.74;100.00
56392;BME280;42289;53.582;9.714;2022-07-29T01:58:59;101644.78;;;11.79;100.00
56392;BME280;42289;53.582;9.714;2022-07-29T02:01:29;101632.63;;;11.78;100.00
56392;BME280;42289;53.582;9.714;2022-07-29T02:03:59;101610.91;;;11.79;100.00
56392;BME280;42289;53.582;9.714;2022-07-29T02:06:29;101602.31;;;11.77;100.00
56392;BME280;42289;53.582;9.714;2022-07-29T02:08:58;101586.50;;;11.82;100.00
56392;BME280;42289;53.582;9.714;2022-07-29T02:11:25;101577.84;;;11.81;100.00
56392;BME280;42289;53.582;9.714;2022-07-29T02:13:52;101571.69;;;11.84;100.00
56392;BME280;42289;53.582;9.714;2022-07-29T02:16:21;101561.19;;;11.87;100.00
56392;BME280;42289;53.582;9.714;2022-07-29T02:18:52;101557.03;;;11.81;100.00
56392;BME280;42289;53.582;9.714;2022-07-29T02:21:23;101553.47;;;11.84;100.00
56392;BME280;42289;53.582;9.714;2022-07-29T02:23:51;101551.88;;;11.80;100.00
56392;BME280;42289;53.582;9.714;2022-07-29T02:26:20;101557.97;;;11.78;100.00
56392;BME280;42289;53.582;9.714;2022-07-29T02:28:48;101563.13;;;11.80;100.00
56392;BME280;42289;53.582;9.714;2022-07-29T02:31:16;101554.50;;;11.78;100.00
56392;BME280;42289;53.582;9.714;2022-07-29T02:33:45;101562.28;;;11.80;100.00
56392;BME280;42289;53.582;9.714;2022-07-29T02:36:14;101557.84;;;11.82;100.00
56392;BME280;42289;53.582;9.714;2022-07-29T02:38:42;101547.53;;;11.78;100.00
56392;BME280;42289;53.582;9.714;2022-07-29T02:41:26;101550.94;;;11.81;100.00
56392;BME280;42289;53.582;9.714;2022-07-29T02:43:56;101551.00;;;11.79;100.00
56392;BME280;42289;53.582;9.714;2022-07-29T02:49:10;101551.00;;;11.79;100.00
56392;BME280;42289;53.582;9.714;2022-07-29T02:51:43;101550.00;;;11.83;100.00
56392;BME280;42289;53.582;9.714;2022-07-29T02:54:11;101553.69;;;11.76;100.00
56392;BME280;42289;53.582;9.714;2022-07-29T02:56:41;101554.53;;;11.76;100.00
56392;BME280;42289;53.582;9.714;2022-07-29T02:59:11;101556.09;;;11.82;100.00
56392;BME280;42289;53.582;9.714;2022-07-29T03:01:42;101546.59;;;11.81;100.00
56392;BME280;42289;53.582;9.714;2022-07-29T03:04:11;101545.00;;;11.77;100.00
56392;BME280;42289;53.582;9.714;2022-07-29T03:06:41;101547.63;;;11.75;100.00
56392;BME280;42289;53.582;9.714;2022-07-29T03:09:10;101545.84;;;11.77;100.00
56392;BME280;42289;53.582;9.714;2022-07-29T03:11:37;101545.00;;;11.75;100.00
56392;BME280;42289;53.582;9.714;2022-07-29T03:14:05;101539.81;;;11.75;100.00
56392;BME280;42289;53.582;9.714;2022-07-29T03:16:33;101548.44;;;11.77;100.00
56392;BME280;42289;53.582;9.714;2022-07-29T03:19:01;101546.78;;;11.75;100.00
56392;BME280;42289;53.582;9.714;2022-07-29T03:21:28;101565.78;;;11.78;100.00
56392;BME280;42289;53.582;9.714;2022-07-29T03:23:56;101551.03;;;11.77;100.00
56392;BME280;42289;53.582;9.714;2022-07-29T03:26:23;101545.00;;;11.75;100.00
56392;BME280;42289;53.582;9.714;2022-07-29T03:28:49;101540.53;;;11.81;100.00
56392;BME280;42289;53.582;9.714;2022-07-29T03:31:16;101530.91;;;11.83;100.00
56392;BME280;42289;53.582;9.714;2022-07-29T03:33:42;101530.16;;;11.79;100.00
56392;BME280;42289;53.582;9.714;2022-07-29T03:36:08;101534.41;;;11.82;100.00
56392;BME280;42289;53.582;9.714;2022-07-29T03:38:35;101531.81;;;11.82;100.00
56392;BME280;42289;53.582;9.714;2022-07-29T03:41:07;101533.53;;;11.83;100.00
56392;BME280;42289;53.582;9.714;2022-07-29T03:43:37;101527.34;;;11.85;100.00
56392;BME280;42289;53.582;9.714;2022-07-29T03:46:06;101530.63;;;11.92;100.00
56392;BME280;42289;53.582;9.714;2022-07-29T03:48:34;101529.81;;;11.90;100.00
56392;BME280;42289;53.582;9.714;2022-07-29T03:51:02;101525.28;;;11.97;100.00
56392;BME280;42289;53.582;9.714;2022-07-29T03:53:29;101532.25;;;11.96;100.00
56392;BME280;42289;53.582;9.714;2022-07-29T03:55:59;101530.44;;;11.98;100.00
56392;BME280;42289;53.582;9.714;2022-07-29T03:58:27;101524.38;;;11.98;100.00
56392;BME280;42289;53.582;9.714;2022-07-29T04:00:55;101546.94;;;11.99;100.00
56392;BME280;42289;53.582;9.714;2022-07-29T04:03:22;101538.31;;;11.97;100.00
56392;BME280;42289;53.582;9.714;2022-07-29T04:05:58;101531.38;;;11.95;100.00
56392;BME280;42289;53.582;9.714;2022-07-29T04:08:25;101529.47;;;12.01;100.00
56392;BME280;42289;53.582;9.714;2022-07-29T04:10:51;101524.28;;;12.01;100.00
56392;BME280;42289;53.582;9.714;2022-07-29T04:13:18;101524.16;;;12.04;100.00
56392;BME280;42289;53.582;9.714;2022-07-29T04:15:46;101525.03;;;12.04;100.00
56392;BME280;42289;53.582;9.714;2022-07-29T04:18:12;101524.97;;;12.06;100.00
56392;BME280;42289;53.582;9.714;2022-07-29T04:20:38;101525.72;;;12.09;100.00
56392;BME280;42289;53.582;9.714;2022-07-29T04:23:05;101521.25;;;12.13;100.00
56392;BME280;42289;53.582;9.714;2022-07-29T04:25:31;101520.41;;;12.13;100.00
56392;BME280;42289;53.582;9.714;2022-07-29T04:27:58;101518.63;;;12.13;100.00
56392;BME280;42289;53.582;9.714;2022-07-29T04:30:27;101521.16;;;12.16;100.00
56392;BME280;42289;53.582;9.714;2022-07-29T04:32:55;101526.28;;;12.19;100.00
56392;BME280;42289;53.582;9.714;2022-07-29T04:35:21;101530.41;;;12.25;100.00
56392;BME280;42289;53.582;9.714;2022-07-29T04:37:48;101533.66;;;12.32;100.00
56392;BME280;42289;53.582;9.714;2022-07-29T04:40:14;101531.13;;;12.30;100.00
56392;BME280;42289;53.582;9.714;2022-07-29T04:42:41;101530.03;;;12.36;100.00
56392;BME280;42289;53.582;9.714;2022-07-29T04:45:08;101536.97;;;12.37;100.00
56392;BME280;42289;53.582;9.714;2022-07-29T04:47:34;101538.63;;;12.39;100.00
56392;BME280;42289;53.582;9.714;2022-07-29T04:50:03;101529.78;;;12.43;100.00
56392;BME280;42289;53.582;9.714;2022-07-29T04:52:30;101533.16;;;12.47;100.00
56392;BME280;42289;53.582;9.714;2022-07-29T04:54:56;101534.75;;;12.51;100.00
56392;BME280;42289;53.582;9.714;2022-07-29T04:57:23;101531.19;;;12.54;100.00
56392;BME280;42289;53.582;9.714;2022-07-29T04:59:49;101529.34;;;12.56;100.00
56392;BME280;42289;53.582;9.714;2022-07-29T05:02:15;101510.81;;;12.64;100.00
56392;BME280;42289;53.582;9.714;2022-07-29T05:04:42;101518.53;;;12.67;100.00
56392;BME280;42289;53.582;9.714;2022-07-29T05:07:10;101528.91;;;12.68;100.00
56392;BME280;42289;53.582;9.714;2022-07-29T05:09:36;101499.03;;;12.77;100.00
56392;BME280;42289;53.582;9.714;2022-07-29T05:12:03;101503.94;;;12.85;100.00
56392;BME280;42289;53.582;9.714;2022-07-29T05:14:29;101508.25;;;12.86;100.00
56392;BME280;42289;53.582;9.714;2022-07-29T05:16:56;101491.84;;;12.84;100.00
56392;BME280;42289;53.582;9.714;2022-07-29T05:19:22;101491.38;;;12.96;100.00
56392;BME280;42289;53.582;9.714;2022-07-29T05:21:49;101491.19;;;13.01;100.00
56392;BME280;42289;53.582;9.714;2022-07-29T05:24:16;101492.97;;;13.00;100.00
56392;BME280;42289;53.582;9.714;2022-07-29T05:26:43;101489.25;;;13.06;100.00
56392;BME280;42289;53.582;9.714;2022-07-29T05:29:09;101495.91;;;13.15;100.00
56392;BME280;42289;53.582;9.714;2022-07-29T05:31:36;101501.91;;;13.17;100.00
56392;BME280;42289;53.582;9.714;2022-07-29T05:34:02;101482.59;;;13.21;100.00
56392;BME280;42289;53.582;9.714;2022-07-29T05:36:29;101460.81;;;13.22;100.00
56392;BME280;42289;53.582;9.714;2022-07-29T05:38:55;101465.19;;;13.21;100.00
56392;BME280;42289;53.582;9.714;2022-07-29T05:41:24;101449.09;;;13.32;100.00
56392;BME280;42289;53.582;9.714;2022-07-29T05:43:50;101456.53;;;13.43;100.00
56392;BME280;42289;53.582;9.714;2022-07-29T05:46:17;101457.13;;;13.50;100.00
56392;BME280;42289;53.582;9.714;2022-07-29T05:48:45;101444.00;;;13.51;100.00
56392;BME280;42289;53.582;9.714;2022-07-29T05:51:11;101419.38;;;13.57;100.00
56392;BME280;42289;53.582;9.714;2022-07-29T05:53:37;101436.50;;;13.64;100.00
56392;BME280;42289;53.582;9.714;2022-07-29T05:56:05;101433.63;;;13.70;100.00
56392;BME280;42289;53.582;9.714;2022-07-29T05:58:33;101425.34;;;13.81;100.00
56392;BME280;42289;53.582;9.714;2022-07-29T06:01:00;101439.84;;;13.88;100.00
56392;BME280;42289;53.582;9.714;2022-07-29T06:03:26;101419.72;;;13.90;100.00
56392;BME280;42289;53.582;9.714;2022-07-29T06:05:53;101417.56;;;14.00;100.00
56392;BME280;42289;53.582;9.714;2022-07-29T06:08:20;101416.94;;;14.14;100.00
56392;BME280;42289;53.582;9.714;2022-07-29T06:10:46;101394.50;;;14.29;100.00
56392;BME280;42289;53.582;9.714;2022-07-29T06:13:13;101381.22;;;14.53;100.00
56392;BME280;42289;53.582;9.714;2022-07-29T06:15:42;101352.09;;;14.79;100.00
56392;BME280;42289;53.582;9.714;2022-07-29T06:18:09;101347.28;;;15.07;100.00
56392;BME280;42289;53.582;9.714;2022-07-29T06:20:36;101341.91;;;15.27;100.00
56392;BME280;42289;53.582;9.714;2022-07-29T06:23:02;101331.06;;;15.35;100.00
56392;BME280;42289;53.582;9.714;2022-07-29T06:25:29;101321.50;;;15.34;100.00
56392;BME280;42289;53.582;9.714;2022-07-29T06:27:57;101318.75;;;15.37;100.00
56392;BME280;42289;53.582;9.714;2022-07-29T06:30:23;101321.84;;;15.61;100.00
56392;BME280;42289;53.582;9.714;2022-07-29T06:32:51;101311.44;;;15.60;100.00
56392;BME280;42289;53.582;9.714;2022-07-29T06:35:18;101311.84;;;15.70;100.00
56392;BME280;42289;53.582;9.714;2022-07-29T06:37:44;101314.81;;;15.79;100.00
56392;BME280;42289;53.582;9.714;2022-07-29T06:40:11;101312.59;;;15.89;100.00
56392;BME280;42289;53.582;9.714;2022-07-29T06:42:55;101313.03;;;16.13;100.00
56392;BME280;42289;53.582;9.714;2022-07-29T06:45:22;101301.69;;;16.29;100.00
56392;BME280;42289;53.582;9.714;2022-07-29T06:47:49;101311.03;;;16.35;100.00
56392;BME280;42289;53.582;9.714;2022-07-29T06:50:17;101320.06;;;16.29;100.00
56392;BME280;42289;53.582;9.714;2022-07-29T06:52:43;101329.03;;;16.25;100.00
56392;BME280;42289;53.582;9.714;2022-07-29T06:55:10;101328.13;;;16.26;100.00
56392;BME280;42289;53.582;9.714;2022-07-29T06:57:36;101332.63;;;16.24;100.00
56392;BME280;42289;53.582;9.714;2022-07-29T07:00:03;101339.13;;;16.33;100.00
56392;BME280;42289;53.582;9.714;2022-07-29T07:02:30;101340.41;;;16.41;100.00
56392;BME280;42289;53.582;9.714;2022-07-29T07:04:57;101336.59;;;16.63;100.00
56392;BME280;42289;53.582;9.714;2022-07-29T07:07:25;101331.72;;;17.03;100.00
56392;BME280;42289;53.582;9.714;2022-07-29T07:09:51;101341.59;;;18.04;100.00
56392;BME280;42289;53.582;9.714;2022-07-29T07:12:17;101396.69;;;19.45;100.00
56392;BME280;42289;53.582;9.714;2022-07-29T07:14:44;101540.44;;;20.05;100.00
56392;BME280;42289;53.582;9.714;2022-07-29T07:17:10;101642.59;;;20.71;100.00
56392;BME280;42289;53.582;9.714;2022-07-29T07:19:37;101697.78;;;21.14;100.00
56392;BME280;42289;53.582;9.714;2022-07-29T07:22:03;101726.28;;;21.60;100.00
56392;BME280;42289;53.582;9.714;2022-07-29T07:24:31;101757.38;;;22.68;100.00
56392;BME280;42289;53.582;9.714;2022-07-29T07:26:57;101774.28;;;22.78;100.00
56392;BME280;42289;53.582;9.714;2022-07-29T07:29:24;101781.06;;;23.63;100.00
56392;BME280;42289;53.582;9.714;2022-07-29T07:31:50;101782.00;;;23.74;100.00
56392;BME280;42289;53.582;9.714;2022-07-29T07:34:16;101790.91;;;23.73;100.00
56392;BME280;42289;53.582;9.714;2022-07-29T07:36:43;101769.78;;;23.14;100.00
56392;BME280;42289;53.582;9.714;2022-07-29T07:39:09;101778.28;;;23.31;100.00
56392;BME280;42289;53.582;9.714;2022-07-29T07:41:37;101775.50;;;22.97;100.00
56392;BME280;42289;53.582;9.714;2022-07-29T07:44:04;101766.53;;;22.40;100.00
56392;BME280;42289;53.582;9.714;2022-07-29T07:46:31;101749.28;;;21.60;100.00
56392;BME280;42289;53.582;9.714;2022-07-29T07:48:57;101720.47;;;20.78;100.00
56392;BME280;42289;53.582;9.714;2022-07-29T07:51:23;101715.38;;;20.34;100.00
56392;BME280;42289;53.582;9.714;2022-07-29T07:53:50;101701.25;;;20.08;100.00
56392;BME280;42289;53.582;9.714;2022-07-29T07:56:16;101692.47;;;20.08;100.00
56392;BME280;42289;53.582;9.714;2022-07-29T07:58:44;101695.78;;;19.55;100.00
56392;BME280;42289;53.582;9.714;2022-07-29T08:01:10;101685.88;;;19.59;100.00
56392;BME280;42289;53.582;9.714;2022-07-29T08:03:37;101693.81;;;19.44;100.00
56392;BME280;42289;53.582;9.714;2022-07-29T08:06:04;101682.09;;;19.63;100.00
56392;BME280;42289;53.582;9.714;2022-07-29T08:08:30;101680.97;;;19.81;100.00
56392;BME280;42289;53.582;9.714;2022-07-29T08:10:57;101696.59;;;19.85;100.00
56392;BME280;42289;53.582;9.714;2022-07-29T08:13:26;101690.16;;;20.03;100.00
56392;BME280;42289;53.582;9.714;2022-07-29T08:15:56;101710.47;;;19.88;100.00
56392;BME280;42289;53.582;9.714;2022-07-29T08:18:28;101726.13;;;20.59;100.00
56392;BME280;42289;53.582;9.714;2022-07-29T08:20:55;101744.81;;;20.96;100.00
56392;BME280;42289;53.582;9.714;2022-07-29T08:23:22;101728.88;;;20.97;100.00
56392;BME280;42289;53.582;9.714;2022-07-29T08:25:49;101746.09;;;20.63;100.00
56392;BME280;42289;53.582;9.714;2022-07-29T08:28:16;101705.31;;;20.67;100.00
56392;BME280;42289;53.582;9.714;2022-07-29T08:30:43;101724.63;;;20.67;100.00
56392;BME280;42289;53.582;9.714;2022-07-29T08:33:10;101728.66;;;20.60;100.00
56392;BME280;42289;53.582;9.714;2022-07-29T08:35:38;101748.41;;;20.67;100.00
56392;BME280;42289;53.582;9.714;2022-07-29T08:38:05;101742.13;;;20.70;100.00
56392;BME280;42289;53.582;9.714;2022-07-29T08:40:31;101738.47;;;21.11;100.00
56392;BME280;42289;53.582;9.714;2022-07-29T08:42:58;101734.34;;;21.59;100.00
56392;BME280;42289;53.582;9.714;2022-07-29T08:45:25;101769.25;;;21.12;100.00
56392;BME280;42289;53.582;9.714;2022-07-29T08:47:55;101760.16;;;21.16;100.00
56392;BME280;42289;53.582;9.714;2022-07-29T08:50:22;101765.66;;;21.13;100.00
56392;BME280;42289;53.582;9.714;2022-07-29T08:52:50;101750.53;;;21.15;100.00
56392;BME280;42289;53.582;9.714;2022-07-29T08:55:17;101757.75;;;21.65;100.00
56392;BME280;42289;53.582;9.714;2022-07-29T08:57:44;101765.47;;;21.55;100.00
56392;BME280;42289;53.582;9.714;2022-07-29T09:00:11;101755.84;;;21.54;100.00
56392;BME280;42289;53.582;9.714;2022-07-29T09:02:39;101754.88;;;21.29;100.00
56392;BME280;42289;53.582;9.714;2022-07-29T09:05:08;101748.97;;;21.26;100.00
56392;BME280;42289;53.582;9.714;2022-07-29T09:07:36;101747.78;;;21.04;100.00
56392;BME280;42289;53.582;9.714;2022-07-29T09:10:04;101755.81;;;20.90;100.00
56392;BME280;42289;53.582;9.714;2022-07-29T09:12:31;101749.66;;;20.76;100.00
56392;BME280;42289;53.582;9.714;2022-07-29T09:14:57;101733.28;;;20.57;100.00
56392;BME280;42289;53.582;9.714;2022-07-29T09:17:39;101747.66;;;20.53;100.00
56392;BME280;42289;53.582;9.714;2022-07-29T09:20:09;101744.06;;;20.54;100.00
56392;BME280;42289;53.582;9.714;2022-07-29T09:22:37;101715.00;;;20.54;100.00
56392;BME280;42289;53.582;9.714;2022-07-29T09:25:04;101722.81;;;20.42;100.00
56392;BME280;42289;53.582;9.714;2022-07-29T09:27:31;101712.44;;;20.39;100.00
56392;BME280;42289;53.582;9.714;2022-07-29T09:30:01;101711.53;;;20.26;100.00
56392;BME280;42289;53.582;9.714;2022-07-29T09:32:28;101709.88;;;20.25;100.00
56392;BME280;42289;53.582;9.714;2022-07-29T09:35:20;101697.06;;;20.19;100.00
56392;BME280;42289;53.582;9.714;2022-07-29T09:37:49;101695.34;;;20.17;100.00
56392;BME280;42289;53.582;9.714;2022-07-29T09:40:17;101676.44;;;20.11;100.00
56392;BME280;42289;53.582;9.714;2022-07-29T09:42:44;101653.38;;;20.00;100.00
56392;BME280;42289;53.582;9.714;2022-07-29T09:45:11;101679.41;;;19.92;100.00
56392;BME280;42289;53.582;9.714;2022-07-29T09:47:42;101677.28;;;19.84;100.00
56392;BME280;42289;53.582;9.714;2022-07-29T09:50:12;101638.66;;;19.83;100.00
56392;BME280;42289;53.582;9.714;2022-07-29T09:52:46;101691.88;;;19.75;100.00
56392;BME280;42289;53.582;9.714;2022-07-29T09:55:14;101673.41;;;19.75;100.00
56392;BME280;42289;53.582;9.714;2022-07-29T09:57:41;101708.75;;;19.73;100.00
56392;BME280;42289;53.582;9.714;2022-07-29T10:00:11;101705.16;;;19.74;100.00
56392;BME280;42289;53.582;9.714;2022-07-29T10:02:40;101702.63;;;19.72;100.00
56392;BME280;42289;53.582;9.714;2022-07-29T10:05:16;101660.31;;;19.74;100.00
56392;BME280;42289;53.582;9.714;2022-07-29T10:07:45;101644.78;;;19.69;100.00
56392;BME280;42289;53.582;9.714;2022-07-29T10:10:20;101666.06;;;19.66;100.00
56392;BME280;42289;53.582;9.714;2022-07-29T10:12:52;101613.22;;;19.67;100.00
56392;BME280;42289;53.582;9.714;2022-07-29T10:15:21;101669.28;;;19.57;100.00
56392;BME280;42289;53.582;9.714;2022-07-29T10:17:48;101701.13;;;19.68;100.00
56392;BME280;42289;53.582;9.714;2022-07-29T10:20:15;101683.25;;;19.59;100.00
56392;BME280;42289;53.582;9.714;2022-07-29T10:22:42;101691.06;;;19.60;100.00
56392;BME280;42289;53.582;9.714;2022-07-29T10:25:09;101667.88;;;19.65;100.00
56392;BME280;42289;53.582;9.714;2022-07-29T10:27:37;101712.31;;;19.72;100.00
56392;BME280;42289;53.582;9.714;2022-07-29T10:30:05;101716.00;;;19.83;100.00
56392;BME280;42289;53.582;9.714;2022-07-29T10:32:39;101711.59;;;19.84;100.00
56392;BME280;42289;53.582;9.714;2022-07-29T10:35:17;101693.75;;;19.88;100.00
56392;BME280;42289;53.582;9.714;2022-07-29T10:38:07;101701.50;;;19.91;100.00
56392;BME280;42289;53.582;9.714;2022-07-29T10:40:43;101683.66;;;19.94;100.00
56392;BME280;42289;53.582;9.714;2022-07-29T10:43:32;101675.84;;;19.93;100.00
56392;BME280;42289;53.582;9.714;2022-07-29T10:46:02;101693.38;;;19.94;100.00
56392;BME280;42289;53.582;9.714;2022-07-29T10:48:29;101718.72;;;20.24;100.00
56392;BME280;42289;53.582;9.714;2022-07-29T10:50:57;101701.88;;;20.12;100.00
56392;BME280;42289;53.582;9.714;2022-07-29T10:53:45;101690.06;;;20.17;100.00
56392;BME280;42289;53.582;9.714;2022-07-29T10:56:23;101686.28;;;20.22;100.00
56392;BME280;42289;53.582;9.714;2022-07-29T10:59:25;101688.66;;;20.39;100.00
56392;BME280;42289;53.582;9.714;2022-07-29T11:01:53;101706.09;;;20.42;100.00
56392;BME280;42289;53.582;9.714;2022-07-29T11:07:36;101714.38;;;21.03;100.00
56392;BME280;42289;53.582;9.714;2022-07-29T11:10:22;101716.66;;;21.33;100.00
56392;BME280;42289;53.582;9.714;2022-07-29T11:12:49;101732.66;;;21.32;100.00
56392;BME280;42289;53.582;9.714;2022-07-29T11:15:19;101730.19;;;21.42;100.00
56392;BME280;42289;53.582;9.714;2022-07-29T11:18:06;101726.41;;;21.20;100.00
56392;BME280;42289;53.582;9.714;2022-07-29T11:20:38;101730.84;;;21.45;100.00
56392;BME280;42289;53.582;9.714;2022-07-29T11:23:23;101733.16;;;21.76;100.00
56392;BME280;42289;53.582;9.714;2022-07-29T11:26:17;101734.81;;;22.14;100.00
56392;BME280;42289;53.582;9.714;2022-07-29T11:28:57;101728.31;;;21.94;100.00
56392;BME280;42289;53.582;9.714;2022-07-29T11:31:35;101723.81;;;21.83;100.00
56392;BME280;42289;53.582;9.714;2022-07-29T11:34:21;101737.50;;;22.01;100.00
56392;BME280;42289;53.582;9.714;2022-07-29T11:37:19;101733.84;;;21.91;100.00
56392;BME280;42289;53.582;9.714;2022-07-29T11:42:43;101732.09;;;22.02;100.00
56392;BME280;42289;53.582;9.714;2022-07-29T11:45:12;101731.09;;;21.92;100.00
56392;BME280;42289;53.582;9.714;2022-07-29T11:47:42;101716.53;;;21.74;100.00
56392;BME280;42289;53.582;9.714;2022-07-29T11:50:14;101715.97;;;21.81;100.00
56392;BME280;42289;53.582;9.714;2022-07-29T11:52:43;101730.75;;;21.97;100.00
56392;BME280;42289;53.582;9.714;2022-07-29T11:55:12;101724.84;;;21.93;100.00
56392;BME280;42289;53.582;9.714;2022-07-29T11:57:45;101695.72;;;21.56;100.00
56392;BME280;42289;53.582;9.714;2022-07-29T12:00:21;101722.06;;;21.71;100.00
56392;BME280;42289;53.582;9.714;2022-07-29T12:02:50;101721.03;;;22.22;100.00
56392;BME280;42289;53.582;9.714;2022-07-29T12:05:17;101704.47;;;21.70;100.00
56392;BME280;42289;53.582;9.714;2022-07-29T12:07:43;101713.81;;;21.62;100.00
56392;BME280;42289;53.582;9.714;2022-07-29T12:10:10;101712.59;;;21.79;100.00
56392;BME280;42289;53.582;9.714;2022-07-29T12:12:37;101716.31;;;22.38;100.00
56392;BME280;42289;53.582;9.714;2022-07-29T12:15:12;101711.97;;;22.37;100.00
56392;BME280;42289;53.582;9.714;2022-07-29T12:17:38;101699.09;;;22.20;100.00
56392;BME280;42289;53.582;9.714;2022-07-29T12:20:07;101695.81;;;21.92;100.00
56392;BME280;42289;53.582;9.714;2022-07-29T12:22:35;101710.63;;;21.94;100.00
56392;BME280;42289;53.582;9.714;2022-07-29T12:25:05;101698.97;;;21.97;100.00
56392;BME280;42289;53.582;9.714;2022-07-29T12:27:32;101698.53;;;21.66;100.00
56392;BME280;42289;53.582;9.714;2022-07-29T12:30:01;101691.78;;;21.49;100.00
56392;BME280;42289;53.582;9.714;2022-07-29T12:32:32;101701.28;;;21.77;100.00
56392;BME280;42289;53.582;9.714;2022-07-29T12:34:59;101718.84;;;22.02;100.00
56392;BME280;42289;53.582;9.714;2022-07-29T12:37:27;101708.56;;;22.11;100.00
56392;BME280;42289;53.582;9.714;2022-07-29T12:39:53;101694.22;;;21.65;100.00
56392;BME280;42289;53.582;9.714;2022-07-29T12:42:20;101675.44;;;21.05;100.00
56392;BME280;42289;53.582;9.714;2022-07-29T12:44:47;101672.19;;;21.02;100.00
56392;BME280;42289;53.582;9.714;2022-07-29T12:47:14;101702.19;;;21.26;100.00
56392;BME280;42289;53.582;9.714;2022-07-29T12:49:40;101665.63;;;20.81;100.00
56392;BME280;42289;53.582;9.714;2022-07-29T12:52:31;101665.66;;;20.54;100.00
56392;BME280;42289;53.582;9.714;2022-07-29T12:54:58;101667.88;;;20.47;100.00
56392;BME280;42289;53.582;9.714;2022-07-29T12:57:26;101673.75;;;20.78;100.00
56392;BME280;42289;53.582;9.714;2022-07-29T13:00:02;101685.19;;;21.05;100.00
56392;BME280;42289;53.582;9.714;2022-07-29T13:02:30;101682.22;;;20.96;100.00